Time;durP1;ratioP1;P1;durP2;ratioP2;P2;SDS_P1;SDS_P2;PMS_P1;PMS_P2;Temp;Humidity;BMP_temperature;BMP_pressure;BME280_temperature;BME280_humidity;BME280_pressure;Samples;Min_cycle;Max_cycle;Signal;HPM_P1;HPM_P2
2022/03/26 00:00:14;;;;;;;21.30;13.30;;;;;;;2.73;69.45;100017.33;109295;1274;138015;-60
2022/03/26 00:02:44;;;;;;;20.90;13.00;;;;;;;2.73;69.31;100017.26;109474;1274;22437;-60
2022/03/26 00:05:12;;;;;;;20.60;12.30;;;;;;;2.75;69.24;100016.37;109322;1274;139039;-60
2022/03/26 00:07:42;;;;;;;20.40;12.70;;;;;;;2.75;69.33;100009.83;109464;1271;22452;-59
2022/03/26 00:10:10;;;;;;;20.90;12.70;;;;;;;2.76;69.33;100003.46;109331;1274;138354;-60
2022/03/26 00:12:39;;;;;;;19.40;12.80;;;;;;;2.76;69.27;99998.45;109483;1274;22430;-60
2022/03/26 00:15:08;;;;;;;20.80;13.10;;;;;;;2.76;69.17;99994.61;109424;1274;22363;-60
2022/03/26 00:17:36;;;;;;;19.70;12.20;;;;;;;2.75;69.03;99994.73;109323;1274;137617;-60
2022/03/26 00:20:05;;;;;;;23.20;13.00;;;;;;;2.74;68.94;99994.52;109435;1274;23253;-60
2022/03/26 00:22:34;;;;;;;21.10;13.50;;;;;;;2.72;68.78;99993.81;109316;1274;138079;-60
2022/03/26 00:25:02;;;;;;;22.10;13.00;;;;;;;2.68;68.81;99989.92;109442;1274;23567;-60
2022/03/26 00:27:30;;;;;;;22.70;13.30;;;;;;;2.65;68.80;99987.17;109461;1274;22469;-60
2022/03/26 00:29:59;;;;;;;24.60;13.70;;;;;;;2.61;68.74;99985.73;109118;1274;139621;-60
2022/03/26 00:32:27;;;;;;;24.00;14.20;;;;;;;2.58;68.95;99981.45;109395;1274;23292;-60
2022/03/26 00:34:56;;;;;;;22.50;14.60;;;;;;;2.56;69.02;99979.23;109309;1274;137624;-59
2022/03/26 00:37:24;;;;;;;27.20;15.70;;;;;;;2.53;68.76;99974.58;109439;1274;22479;-60
2022/03/26 00:39:53;;;;;;;24.50;14.80;;;;;;;2.49;68.88;99968.38;109319;1274;137875;-59
2022/03/26 00:42:22;;;;;;;25.60;15.30;;;;;;;2.46;68.92;99965.79;109393;1274;22439;-60
2022/03/26 00:44:50;;;;;;;26.60;15.20;;;;;;;2.45;68.85;99963.73;109160;1277;22954;-61
2022/03/26 00:47:18;;;;;;;24.20;14.50;;;;;;;2.44;68.87;99959.58;109336;1274;138696;-61
2022/03/26 00:49:54;;;;;;;24.30;15.20;;;;;;;2.41;68.87;99958.77;109435;1274;22364;-59
2022/03/26 00:52:23;;;;;;;26.40;16.10;;;;;;;2.41;69.12;99959.52;109293;1274;138246;-59
2022/03/26 00:54:51;;;;;;;25.70;15.50;;;;;;;2.41;69.03;99958.15;109407;1274;23061;-59
2022/03/26 00:57:20;;;;;;;27.90;15.30;;;;;;;2.39;68.95;99957.51;109421;1274;22374;-59
2022/03/26 00:59:52;;;;;;;23.50;14.40;;;;;;;2.38;68.95;99958.29;109215;1276;138172;-59
2022/03/26 01:02:21;;;;;;;23.80;14.60;;;;;;;2.37;69.06;99954.30;109423;1274;22485;-59
2022/03/26 01:04:49;;;;;;;23.40;14.50;;;;;;;2.36;69.08;99948.73;109320;1274;137619;-59
2022/03/26 01:07:18;;;;;;;27.00;14.70;;;;;;;2.34;69.03;99947.69;109398;1274;22390;-59
2022/03/26 01:09:46;;;;;;;23.10;14.60;;;;;;;2.32;68.96;99945.56;109359;1275;22287;-59
2022/03/26 01:12:14;;;;;;;31.40;17.30;;;;;;;2.31;69.03;99943.67;109319;1275;137746;-60
2022/03/26 01:14:42;;;;;;;36.60;19.70;;;;;;;2.30;68.93;99942.05;109467;1273;22398;-60
2022/03/26 01:17:10;;;;;;;38.40;20.00;;;;;;;2.28;68.93;99940.67;109290;1274;138041;-60
2022/03/26 01:19:39;;;;;;;46.80;24.00;;;;;;;2.25;68.90;99934.15;109376;1274;22329;-60
2022/03/26 01:22:07;;;;;;;53.30;25.30;;;;;;;2.23;68.67;99933.70;109298;1274;137536;-60
2022/03/26 01:24:36;;;;;;;50.10;24.60;;;;;;;2.20;68.80;99927.48;109391;1274;23698;-60
2022/03/26 01:27:06;;;;;;;56.30;27.00;;;;;;;2.18;68.91;99930.72;109418;1274;22743;-60
2022/03/26 01:29:40;;;;;;;61.60;26.70;;;;;;;2.17;68.83;99932.38;109317;1274;138520;-60
2022/03/26 01:32:09;;;;;;;53.30;26.10;;;;;;;2.12;68.83;99935.24;109388;1274;22437;-60
2022/03/26 01:34:37;;;;;;;53.90;25.40;;;;;;;2.11;68.77;99934.85;109281;1274;138171;-60
2022/03/26 01:37:06;;;;;;;55.70;23.50;;;;;;;2.09;68.75;99933.71;109398;1274;23695;-60
2022/03/26 01:39:34;;;;;;;48.80;22.50;;;;;;;2.07;68.68;99929.61;109406;1274;22456;-60
2022/03/26 01:42:04;;;;;;;43.60;21.70;;;;;;;2.07;68.86;99931.55;109315;1274;137772;-59
2022/03/26 01:44:33;;;;;;;46.80;20.70;;;;;;;2.07;68.88;99930.35;109406;1274;22612;-59
2022/03/26 01:47:03;;;;;;;38.90;18.80;;;;;;;2.06;69.04;99920.24;109324;1274;138232;-60
2022/03/26 01:49:31;;;;;;;45.60;20.10;;;;;;;2.06;68.72;99921.36;109424;1274;22492;-60
2022/03/26 01:52:00;;;;;;;41.90;20.50;;;;;;;2.05;68.90;99916.64;109217;1275;139914;-60
2022/03/26 01:54:29;;;;;;;38.40;19.60;;;;;;;2.04;68.64;99911.96;109416;1274;23330;-60
2022/03/26 01:56:57;;;;;;;32.40;16.60;;;;;;;2.03;68.70;99909.54;109310;1276;22532;-60
2022/03/26 01:59:27;;;;;;;27.50;15.40;;;;;;;2.01;68.62;99904.02;109270;1274;137464;-59
2022/03/26 02:01:55;;;;;;;23.20;14.90;;;;;;;1.98;68.66;99900.34;109270;1274;22425;-60
2022/03/26 02:04:24;;;;;;;25.90;14.80;;;;;;;1.94;68.40;99898.60;109299;1274;137820;-60
2022/03/26 02:06:53;;;;;;;25.90;16.00;;;;;;;1.89;68.67;99896.98;109432;1274;23309;-60
2022/03/26 02:09:43;;;;;;;22.70;14.20;;;;;;;1.84;68.43;99896.20;109402;1274;22437;-60
2022/03/26 02:12:24;;;;;;;23.80;14.10;;;;;;;1.81;68.38;99893.77;109308;1274;138859;-60
2022/03/26 02:14:59;;;;;;;20.30;13.10;;;;;;;1.76;68.51;99888.92;109431;1274;22393;-60
2022/03/26 02:17:28;;;;;;;25.80;14.10;;;;;;;1.73;68.61;99891.34;109157;1276;137909;-60
2022/03/26 02:19:58;;;;;;;22.90;14.20;;;;;;;1.69;68.71;99889.13;109412;1274;22434;-60
2022/03/26 02:22:27;;;;;;;21.30;13.10;;;;;;;1.67;68.44;99889.21;109262;1275;137845;-60
2022/03/26 02:25:00;;;;;;;26.00;13.30;;;;;;;1.64;68.63;99884.02;109445;1274;22364;-60
2022/03/26 02:27:30;;;;;;;23.00;12.60;;;;;;;1.63;68.54;99879.66;109454;1274;22402;-59
2022/03/26 02:29:58;;;;;;;23.70;12.90;;;;;;;1.64;68.66;99879.15;109302;1274;138181;-60
2022/03/26 02:32:27;;;;;;;19.60;12.10;;;;;;;1.66;68.70;99882.02;109432;1274;22539;-60
2022/03/26 02:34:56;;;;;;;18.40;12.30;;;;;;;1.67;68.49;99876.48;109314;1274;138686;-60
2022/03/26 02:37:31;;;;;;;21.50;12.30;;;;;;;1.68;68.50;99876.74;109423;1274;22458;-60
2022/03/26 02:40:04;;;;;;;23.70;13.50;;;;;;;1.69;68.54;99875.61;109312;1274;139168;-60
2022/03/26 02:42:36;;;;;;;20.30;13.50;;;;;;;1.72;68.54;99872.42;109383;1274;23281;-60
2022/03/26 02:45:05;;;;;;;21.00;13.20;;;;;;;1.74;68.47;99861.67;109455;1274;22444;-60
2022/03/26 02:47:33;;;;;;;20.60;12.60;;;;;;;1.75;68.19;99862.38;109312;1274;138656;-60
2022/03/26 02:50:02;;;;;;;22.10;13.40;;;;;;;1.75;68.04;99853.76;109473;1274;22465;-59
2022/03/26 02:52:30;;;;;;;22.00;13.50;;;;;;;1.76;68.07;99851.69;109369;1274;139097;-59
2022/03/26 02:54:58;;;;;;;21.90;12.90;;;;;;;1.76;68.10;99853.84;109405;1274;22475;-60
2022/03/26 02:57:26;;;;;;;22.70;12.70;;;;;;;1.75;67.77;99853.21;109415;1274;23985;-60
2022/03/26 02:59:55;;;;;;;21.00;13.30;;;;;;;1.74;67.79;99849.98;109334;1274;137297;-59
2022/03/26 03:02:23;;;;;;;21.70;13.90;;;;;;;1.74;67.76;99852.87;109462;1274;22432;-60
2022/03/26 03:04:52;;;;;;;22.40;13.80;;;;;;;1.73;67.44;99850.21;109252;1276;138391;-60
2022/03/26 03:07:21;;;;;;;27.00;16.20;;;;;;;1.72;67.53;99846.27;109417;1274;22428;-59
2022/03/26 03:09:55;;;;;;;21.00;13.80;;;;;;;1.70;67.55;99844.92;109303;1274;137917;-59
2022/03/26 03:12:44;;;;;;;24.10;14.90;;;;;;;1.67;67.31;99840.46;109453;1274;22421;-60
2022/03/26 03:15:18;;;;;;;24.60;14.80;;;;;;;1.66;67.45;99834.51;109404;1274;22433;-60
2022/03/26 03:18:00;;;;;;;;;;;;;;;1.64;67.40;99831.55;109351;1274;139197;-59
2022/03/26 03:20:29;;;;;;;18.60;12.60;;;;;;;1.63;67.34;99821.70;109455;1274;22451;-60
2022/03/26 03:23:03;;;;;;;25.40;14.10;;;;;;;1.61;67.23;99818.33;109291;1274;137308;-60
2022/03/26 03:25:32;;;;;;;23.10;13.50;;;;;;;1.61;67.64;99812.67;109430;1274;22468;-60
2022/03/26 03:28:00;;;;;;;25.50;14.40;;;;;;;1.61;67.55;99816.88;109356;1274;137589;-59
2022/03/26 03:30:28;;;;;;;26.50;14.50;;;;;;;1.61;67.19;99815.77;109423;1274;23540;-60
2022/03/26 03:32:57;;;;;;;23.90;13.20;;;;;;;1.62;67.59;99816.37;109411;1274;22461;-60
2022/03/26 03:35:25;;;;;;;19.80;12.80;;;;;;;1.65;67.40;99817.14;109265;1274;138112;-59
2022/03/26 03:37:53;;;;;;;22.60;14.60;;;;;;;1.67;67.29;99814.72;109412;1274;23631;-60
2022/03/26 03:40:22;;;;;;;20.20;12.70;;;;;;;1.69;67.12;99812.30;109290;1274;139035;-59
2022/03/26 03:42:50;;;;;;;22.20;12.40;;;;;;;1.72;67.20;99810.59;109433;1274;23521;-60
2022/03/26 03:45:18;;;;;;;23.20;13.40;;;;;;;1.74;67.23;99801.54;109501;1274;23317;-60
2022/03/26 03:47:46;;;;;;;24.10;14.00;;;;;;;1.77;67.32;99800.84;109293;1274;138072;-60
2022/03/26 03:50:15;;;;;;;19.20;12.20;;;;;;;1.80;67.41;99800.28;109438;1274;23621;-60
2022/03/26 03:52:44;;;;;;;23.00;13.50;;;;;;;1.83;67.37;99797.73;109313;1274;138108;-60
2022/03/26 03:55:12;;;;;;;22.60;12.90;;;;;;;1.83;67.10;99790.35;109400;1274;22465;-60
2022/03/26 03:57:43;;;;;;;25.40;14.90;;;;;;;1.86;67.20;99792.45;109426;1274;23157;-60
2022/03/26 04:00:13;;;;;;;23.20;14.30;;;;;;;1.88;67.41;99786.23;109257;1274;137758;-59
2022/03/26 04:02:42;;;;;;;22.80;14.30;;;;;;;1.89;67.19;99788.47;109454;1274;22434;-60
2022/03/26 04:05:10;;;;;;;23.50;15.20;;;;;;;1.90;67.00;99787.24;109205;1276;137664;-60
2022/03/26 04:07:44;;;;;;;26.30;15.60;;;;;;;1.92;67.08;99783.02;109403;1274;22443;-59
2022/03/26 04:10:32;;;;;;;25.60;16.20;;;;;;;1.95;67.52;99783.77;109311;1274;137506;-60
2022/03/26 04:13:00;;;;;;;28.80;15.80;;;;;;;1.97;67.34;99778.17;109368;1274;22537;-60
2022/03/26 04:15:48;;;;;;;24.60;15.60;;;;;;;2.01;67.75;99780.61;109395;1274;22448;-60
2022/03/26 04:18:17;;;;;;;26.20;17.00;;;;;;;2.05;67.26;99778.91;109298;1274;137854;-60
2022/03/26 04:20:47;;;;;;;29.60;17.60;;;;;;;2.07;67.43;99776.20;109447;1274;22303;-60
2022/03/26 04:23:17;;;;;;;34.60;19.20;;;;;;;2.12;67.44;99770.66;109184;1275;138541;-60
2022/03/26 04:25:49;;;;;;;30.50;17.80;;;;;;;2.17;67.62;99761.88;109458;1274;22508;-60
2022/03/26 04:28:18;;;;;;;30.40;17.50;;;;;;;2.24;67.42;99758.86;109278;1274;138771;-60
2022/03/26 04:30:46;;;;;;;32.70;16.80;;;;;;;2.31;67.60;99754.85;109434;1274;23542;-60
2022/03/26 04:33:15;;;;;;;31.10;18.50;;;;;;;2.40;67.51;99747.24;109460;1274;22490;-59
2022/03/26 04:35:43;;;;;;;30.90;17.90;;;;;;;2.51;67.42;99747.08;109370;1274;138441;-60
2022/03/26 04:38:11;;;;;;;32.90;18.50;;;;;;;2.63;67.27;99744.77;109405;1274;22471;-60
2022/03/26 04:40:41;;;;;;;34.80;20.20;;;;;;;2.78;67.37;99745.65;109275;1277;138263;-59
2022/03/26 04:43:09;;;;;;;49.80;25.80;;;;;;;2.94;67.13;99737.75;109443;1274;23567;-60
2022/03/26 04:45:38;;;;;;;56.80;30.50;;;;;;;3.11;66.82;99735.27;109366;1274;22548;-60
2022/03/26 04:48:06;;;;;;;63.10;34.60;;;;;;;3.28;66.46;99733.55;109334;1274;137521;-60
2022/03/26 04:50:34;;;;;;;63.90;35.10;;;;;;;3.42;66.07;99727.67;109387;1274;23204;-60
2022/03/26 04:53:03;;;;;;;76.80;39.30;;;;;;;3.56;65.74;99725.60;108290;1274;138186;-59
2022/03/26 04:55:32;;;;;;;61.70;34.80;;;;;;;3.70;65.18;99724.32;109425;1274;22546;-59
2022/03/26 04:58:00;;;;;;;59.40;34.90;;;;;;;3.84;64.98;99721.93;109321;1274;138779;-59
2022/03/26 05:00:28;;;;;;;65.10;36.10;;;;;;;3.98;64.62;99719.51;109471;1274;23034;-59
2022/03/26 05:02:58;;;;;;;69.00;38.70;;;;;;;4.13;64.21;99720.67;109397;1274;22432;-59
2022/03/26 05:05:26;;;;;;;60.50;37.70;;;;;;;4.27;64.17;99720.88;109317;1274;138631;-58
2022/03/26 05:07:55;;;;;;;95.90;48.70;;;;;;;4.39;63.63;99722.08;109428;1274;22442;-59
2022/03/26 05:10:27;;;;;;;113.70;62.00;;;;;;;4.49;63.29;99724.11;109272;1274;138508;-59
2022/03/26 05:12:56;;;;;;;135.90;71.90;;;;;;;4.57;62.96;99723.27;109457;1274;22997;-59
2022/03/26 05:15:27;;;;;;;151.90;80.20;;;;;;;4.63;62.48;99719.41;109393;1274;23250;-59
2022/03/26 05:18:15;;;;;;;155.00;81.40;;;;;;;4.70;62.27;99720.38;109207;1277;138497;-59
2022/03/26 05:20:44;;;;;;;149.90;79.80;;;;;;;4.74;62.36;99717.59;109429;1274;22260;-59
2022/03/26 05:23:13;;;;;;;140.90;80.00;;;;;;;4.77;61.71;99711.41;109360;1274;138559;-59
2022/03/26 05:25:42;;;;;;;145.70;78.90;;;;;;;4.79;61.54;99708.11;109416;1274;23236;-59
2022/03/26 05:28:11;;;;;;;124.60;70.60;;;;;;;4.81;61.71;99706.02;109305;1272;137667;-59
2022/03/26 05:30:40;;;;;;;116.90;69.20;;;;;;;4.84;61.47;99705.97;109416;1274;22583;-59
2022/03/26 05:33:08;;;;;;;128.50;71.00;;;;;;;4.86;61.14;99699.24;109424;1274;23560;-59
2022/03/26 05:35:36;;;;;;;126.20;66.20;;;;;;;4.88;61.31;99693.34;109233;1277;137775;-59
2022/03/26 05:38:05;;;;;;;123.40;73.80;;;;;;;4.92;61.46;99689.55;109432;1274;22515;-59
2022/03/26 05:40:33;;;;;;;113.50;64.70;;;;;;;4.96;61.38;99683.22;109306;1274;138050;-59
2022/03/26 05:43:01;;;;;;;106.60;61.50;;;;;;;5.00;61.31;99684.83;109449;1274;22619;-59
2022/03/26 05:45:30;;;;;;;98.60;58.10;;;;;;;5.04;61.58;99686.20;109420;1274;22446;-59
2022/03/26 05:48:01;;;;;;;84.50;55.00;;;;;;;5.10;61.63;99684.13;109350;1274;137319;-59
2022/03/26 05:50:33;;;;;;;83.20;52.90;;;;;;;5.16;61.46;99679.31;109418;1274;23677;-58
2022/03/26 05:53:01;;;;;;;90.10;57.10;;;;;;;5.23;61.50;99677.20;109264;1275;138054;-59
2022/03/26 05:55:30;;;;;;;95.50;60.90;;;;;;;5.28;61.28;99671.52;109462;1274;22496;-59
2022/03/26 05:57:59;;;;;;;122.50;74.50;;;;;;;5.35;61.54;99669.73;109334;1273;138656;-59
2022/03/26 06:00:28;;;;;;;117.60;70.10;;;;;;;5.41;61.13;99669.42;109374;1276;22439;-59
2022/03/26 06:02:56;;;;;;;121.60;76.20;;;;;;;5.46;60.77;99664.70;109378;1275;22548;-59
2022/03/26 06:05:26;;;;;;;114.90;73.00;;;;;;;5.51;60.56;99657.60;109327;1274;138674;-59
2022/03/26 06:07:54;;;;;;;117.40;76.00;;;;;;;5.57;60.50;99656.11;109478;1274;22490;-59
2022/03/26 06:10:23;;;;;;;120.40;78.10;;;;;;;5.62;60.46;99651.58;109320;1274;138706;-59
2022/03/26 06:12:53;;;;;;;120.10;75.40;;;;;;;5.69;60.22;99646.05;109442;1274;22422;-59
2022/03/26 06:15:22;;;;;;;107.20;68.80;;;;;;;5.76;59.43;99649.34;109275;1274;22521;-59
2022/03/26 06:18:12;;;;;;;112.80;72.20;;;;;;;5.81;59.27;99648.86;109140;1277;138170;-59
2022/03/26 06:20:43;;;;;;;109.50;67.60;;;;;;;5.87;58.90;99640.34;109420;1274;23189;-59
2022/03/26 06:23:13;;;;;;;106.30;64.70;;;;;;;5.94;58.73;99635.75;109330;1274;139044;-59
2022/03/26 06:25:43;;;;;;;91.50;57.30;;;;;;;6.01;58.59;99631.77;109116;1274;23561;-59
2022/03/26 06:28:19;;;;;;;85.70;49.60;;;;;;;6.09;58.63;99628.90;109379;1274;137909;-59
2022/03/26 06:30:51;;;;;;;80.30;48.60;;;;;;;6.18;58.30;99620.66;109014;1274;23271;-60
2022/03/26 06:33:25;;;;;;;86.10;49.50;;;;;;;6.27;58.25;99612.76;109227;1274;22511;-59
2022/03/26 06:35:55;;;;;;;72.60;43.10;;;;;;;6.37;57.80;99610.38;109032;1276;139118;-60
2022/03/26 06:38:31;;;;;;;63.60;35.90;;;;;;;6.45;57.07;99608.77;108755;1277;22566;-59
2022/03/26 06:41:07;;;;;;;57.40;34.00;;;;;;;6.51;57.24;99611.80;109127;1274;138731;-60
2022/03/26 06:43:43;;;;;;;57.80;31.40;;;;;;;6.56;56.97;99611.23;109002;1274;22519;-59
2022/03/26 06:48:21;;;;;;;86.30;39.80;;;;;;;6.69;56.84;99613.42;101608;1312;565810;-60
2022/03/26 06:51:02;;;;;;;90.90;46.40;;;;;;;6.74;56.76;99607.23;108200;1287;22488;-60
2022/03/26 06:53:34;;;;;;;101.90;51.00;;;;;;;6.83;56.82;99606.59;107830;1287;136898;-60
2022/03/26 06:56:06;;;;;;;94.30;50.40;;;;;;;6.91;56.61;99598.89;108313;1287;22519;-60
2022/03/26 06:58:34;;;;;;;88.60;45.80;;;;;;;7.00;56.32;99596.04;108134;1287;137853;-59
2022/03/26 07:01:03;;;;;;;76.60;44.50;;;;;;;7.09;56.62;99598.46;108035;1287;163862;-60
2022/03/26 07:03:32;;;;;;;55.20;34.30;;;;;;;7.18;56.13;99597.92;108366;1286;22433;-60
2022/03/26 07:06:02;;;;;;;55.70;33.00;;;;;;;7.26;55.89;99592.69;108275;1286;139492;-60
2022/03/26 07:08:30;;;;;;;60.40;37.90;;;;;;;7.33;55.52;99591.61;108375;1286;22458;-61
2022/03/26 07:10:59;;;;;;;82.00;45.40;;;;;;;7.39;55.29;99587.64;108278;1286;137093;-60
2022/03/26 07:13:27;;;;;;;85.80;51.20;;;;;;;7.46;55.31;99585.92;108343;1286;22618;-60
2022/03/26 07:15:55;;;;;;;83.10;48.60;;;;;;;7.53;55.14;99580.41;108289;1286;138379;-60
2022/03/26 07:18:23;;;;;;;76.30;44.30;;;;;;;7.59;55.22;99576.55;108391;1285;22441;-60
2022/03/26 07:21:02;;;;;;;62.50;38.80;;;;;;;7.65;55.44;99571.15;108388;1285;22509;-60
2022/03/26 07:23:30;;;;;;;70.50;42.10;;;;;;;7.73;55.11;99569.60;108275;1286;138004;-60
2022/03/26 07:25:58;;;;;;;78.80;44.40;;;;;;;7.80;55.23;99570.08;108393;1285;22492;-60
2022/03/26 07:28:27;;;;;;;71.50;40.00;;;;;;;7.88;54.95;99568.84;108283;1285;138608;-60
2022/03/26 07:30:55;;;;;;;64.60;39.40;;;;;;;7.98;55.03;99571.90;108557;1283;23284;-60
2022/03/26 07:33:24;;;;;;;65.30;40.80;;;;;;;8.06;55.01;99570.07;108369;1286;22658;-60
2022/03/26 07:35:53;;;;;;;74.10;43.70;;;;;;;8.16;54.69;99570.60;108275;1285;138631;-60
2022/03/26 07:38:21;;;;;;;72.70;44.30;;;;;;;8.25;54.70;99559.80;108398;1284;23236;-60
2022/03/26 07:40:50;;;;;;;79.60;42.30;;;;;;;8.34;54.52;99552.90;108337;1283;137085;-60
2022/03/26 07:43:18;;;;;;;54.10;33.30;;;;;;;8.42;54.41;99546.70;108374;1284;23090;-60
2022/03/26 07:45:47;;;;;;;53.60;33.10;;;;;;;8.51;54.09;99540.30;108344;1286;23401;-60
2022/03/26 07:48:15;;;;;;;55.50;33.10;;;;;;;8.60;54.13;99535.13;108290;1286;137475;-61
2022/03/26 07:50:44;;;;;;;44.90;29.60;;;;;;;8.70;54.41;99529.43;108472;1284;22447;-60
2022/03/26 07:53:12;;;;;;;43.60;25.00;;;;;;;8.83;54.29;99524.33;108284;1285;137573;-60
2022/03/26 07:55:40;;;;;;;44.70;28.20;;;;;;;8.96;54.05;99514.55;108423;1285;22476;-60
2022/03/26 07:58:09;;;;;;;49.10;27.50;;;;;;;9.12;53.54;99511.64;108264;1285;138295;-60
2022/03/26 08:00:38;;;;;;;53.00;27.80;;;;;;;9.26;53.41;99501.09;108396;1286;23066;-60
2022/03/26 08:03:10;;;;;;;53.10;29.20;;;;;;;9.42;53.02;99495.92;108343;1286;22459;-61
2022/03/26 08:05:39;;;;;;;50.90;28.00;;;;;;;9.56;52.50;99484.09;108285;1285;139044;-61
2022/03/26 08:08:07;;;;;;;50.30;27.60;;;;;;;9.68;52.05;99481.73;108368;1286;23236;-61
2022/03/26 08:10:48;;;;;;;49.10;26.50;;;;;;;9.82;52.03;99476.15;108263;1286;138032;-60
2022/03/26 08:13:17;;;;;;;51.40;26.50;;;;;;;9.96;51.33;99470.10;108380;1286;23138;-61
2022/03/26 08:15:58;;;;;;;49.40;26.90;;;;;;;10.10;50.68;99467.26;108289;1285;138492;-60
2022/03/26 08:18:26;;;;;;;44.20;21.50;;;;;;;10.21;50.24;99469.15;108359;1286;22286;-61
2022/03/26 08:20:55;;;;;;;45.00;23.50;;;;;;;10.33;49.58;99456.37;108397;1285;23213;-61
2022/03/26 08:23:23;;;;;;;38.70;20.40;;;;;;;10.44;48.65;99452.65;108265;1286;137799;-61
2022/03/26 08:28:38;;;;;;;38.90;21.50;;;;;;;10.60;48.31;99448.01;108233;1286;138704;-61
2022/03/26 08:31:10;;;;;;;50.70;26.30;;;;;;;10.69;48.07;99452.91;109172;1277;22440;-61
2022/03/26 08:33:39;;;;;;;53.40;27.00;;;;;;;10.77;47.27;99449.67;109220;1277;22445;-59
2022/03/26 08:36:11;;;;;;;53.60;25.30;;;;;;;10.84;46.64;99441.96;109128;1277;138536;-59
2022/03/26 08:38:39;;;;;;;44.00;23.50;;;;;;;10.88;46.78;99444.63;109060;1277;22440;-61
2022/03/26 08:41:09;;;;;;;45.00;23.40;;;;;;;10.95;47.23;99432.08;109134;1277;137267;-61
2022/03/26 08:43:38;;;;;;;42.80;23.60;;;;;;;11.04;47.06;99427.77;109154;1277;22463;-63
2022/03/26 08:46:07;;;;;;;59.00;24.90;;;;;;;11.13;47.15;99418.72;109065;1277;139314;-61
2022/03/26 08:48:35;;;;;;;43.80;23.90;;;;;;;11.21;46.93;99411.14;109122;1277;22473;-61
2022/03/26 08:51:04;;;;;;;40.20;21.90;;;;;;;11.29;46.94;99406.03;109227;1277;22527;-61
2022/03/26 08:53:32;;;;;;;46.50;24.70;;;;;;;11.36;46.72;99401.71;109002;1277;139054;-61
2022/03/26 08:56:00;;;;;;;48.70;23.70;;;;;;;11.42;46.68;99388.85;109245;1277;22465;-61
2022/03/26 08:58:29;;;;;;;41.20;23.80;;;;;;;11.48;47.04;99386.70;109078;1277;138754;-61
2022/03/26 09:00:57;;;;;;;47.40;23.70;;;;;;;11.52;46.89;99378.75;109267;1277;22240;-61
2022/03/26 09:03:25;;;;;;;46.00;24.90;;;;;;;11.54;47.25;99375.14;109181;1277;22269;-61
2022/03/26 09:05:56;;;;;;;42.00;24.40;;;;;;;11.58;47.26;99369.27;109129;1277;139497;-61
2022/03/26 09:08:24;;;;;;;46.00;25.00;;;;;;;11.61;47.15;99365.35;109088;1277;22565;-59
2022/03/26 09:10:53;;;;;;;47.20;26.20;;;;;;;11.62;47.38;99362.08;109049;1277;137466;-61
2022/03/26 09:13:21;;;;;;;44.70;25.50;;;;;;;11.64;47.52;99357.29;109086;1277;23301;-61
2022/03/26 09:16:09;;;;;;;;;;;;;;;11.67;47.85;99350.05;109034;1277;138264;-58
2022/03/26 09:18:37;;;;;;;44.70;24.60;;;;;;;11.71;47.92;99346.98;109164;1277;22528;-61
2022/03/26 09:21:06;;;;;;;40.20;23.50;;;;;;;11.74;48.35;99344.14;109239;1277;22491;-60
2022/03/26 09:23:34;;;;;;;42.60;24.30;;;;;;;11.79;48.30;99337.10;109161;1277;137759;-61
2022/03/26 09:26:04;;;;;;;45.00;24.40;;;;;;;11.85;48.64;99331.86;109058;1278;22459;-61
2022/03/26 09:28:32;;;;;;;38.30;23.20;;;;;;;11.93;48.44;99320.96;109144;1277;137621;-61
2022/03/26 09:31:02;;;;;;;43.50;23.20;;;;;;;12.01;48.33;99322.21;109228;1277;22504;-61
2022/03/26 09:33:31;;;;;;;41.50;24.20;;;;;;;12.07;48.53;99311.96;109012;1277;22522;-61
2022/03/26 09:35:59;;;;;;;46.80;25.10;;;;;;;12.16;48.24;99306.43;107584;1277;137753;-60
2022/03/26 09:38:27;;;;;;;43.40;24.90;;;;;;;12.23;48.29;99300.98;104632;1277;23052;-60
2022/03/26 09:40:56;;;;;;;47.90;23.20;;;;;;;12.29;48.50;99296.20;109102;1277;137927;-60
2022/03/26 09:43:26;;;;;;;50.20;21.10;;;;;;;12.35;48.44;99287.59;109195;1277;23103;-61
2022/03/26 09:45:54;;;;;;;56.20;20.10;;;;;;;12.42;48.45;99285.39;108897;1277;137623;-61
2022/03/26 09:48:22;;;;;;;35.10;19.90;;;;;;;12.49;48.40;99277.88;109220;1277;22527;-61
2022/03/26 09:50:51;;;;;;;38.00;19.90;;;;;;;12.54;48.11;99269.89;109123;1277;22504;-60
2022/03/26 09:53:20;;;;;;;34.20;19.90;;;;;;;12.61;48.06;99261.98;108821;1277;138658;-60
2022/03/26 09:55:51;;;;;;;54.50;21.70;;;;;;;12.70;47.94;99245.89;109094;1277;22554;-60
2022/03/26 09:58:19;;;;;;;42.00;21.30;;;;;;;12.79;47.95;99239.80;108850;1277;138935;-60
2022/03/26 10:00:53;;;;;;;43.30;20.40;;;;;;;12.86;48.11;99233.25;109129;1277;22649;-61
2022/03/26 10:03:21;;;;;;;45.50;21.10;;;;;;;12.94;47.75;99227.59;109186;1277;22520;-60
2022/03/26 10:05:59;;;;;;;41.40;18.00;;;;;;;13.02;47.82;99215.25;109089;1277;138018;-60
2022/03/26 10:08:28;;;;;;;96.40;20.80;;;;;;;13.11;47.35;99218.70;108965;1278;22407;-61
2022/03/26 10:10:58;;;;;;;38.00;20.60;;;;;;;13.17;47.00;99206.66;109081;1277;138659;-61
2022/03/26 10:13:36;;;;;;;28.00;17.00;;;;;;;13.24;47.36;99204.27;109194;1277;23520;-60
2022/03/26 10:16:11;;;;;;;40.30;18.30;;;;;;;13.34;46.79;99194.79;109006;1277;139073;-61
2022/03/26 10:18:40;;;;;;;35.60;17.00;;;;;;;13.42;46.94;99186.95;109205;1277;22250;-61
2022/03/26 10:21:13;;;;;;;30.00;15.80;;;;;;;13.51;46.37;99184.48;109174;1277;22408;-60
2022/03/26 10:23:49;;;;;;;29.90;14.50;;;;;;;13.57;46.20;99175.41;108939;1277;138454;-60
2022/03/26 10:26:21;;;;;;;29.50;13.20;;;;;;;13.61;45.95;99173.23;109200;1277;22250;-60
2022/03/26 10:29:01;;;;;;;27.90;13.70;;;;;;;13.66;45.90;99154.20;109072;1277;139080;-61
2022/03/26 10:34:20;;;;;;;35.50;16.90;;;;;;;13.77;45.03;99157.05;109058;1275;137948;-60
2022/03/26 10:36:58;;;;;;;37.90;18.50;;;;;;;13.81;44.75;99154.67;109170;1277;23429;-61
2022/03/26 10:39:27;;;;;;;29.90;16.50;;;;;;;13.91;44.55;99150.68;109142;1277;22475;-59
2022/03/26 10:41:55;;;;;;;37.20;17.00;;;;;;;14.01;44.76;99135.19;109068;1277;138172;-59
2022/03/26 10:44:28;;;;;;;37.90;17.90;;;;;;;14.07;44.49;99124.71;109196;1277;22456;-60
2022/03/26 10:46:58;;;;;;;35.40;14.50;;;;;;;14.09;44.74;99129.36;109004;1277;138018;-60
2022/03/26 10:49:29;;;;;;;32.20;15.50;;;;;;;14.08;44.10;99121.73;109114;1277;22471;-60
2022/03/26 10:52:04;;;;;;;26.20;12.60;;;;;;;14.04;43.90;99115.33;109029;1277;138002;-60
2022/03/26 10:54:33;;;;;;;27.70;12.90;;;;;;;13.97;43.52;99109.94;109177;1277;23291;-60
2022/03/26 10:57:01;;;;;;;25.60;11.40;;;;;;;13.90;43.49;99101.50;109160;1276;22535;-60
2022/03/26 10:59:30;;;;;;;23.40;10.50;;;;;;;13.84;43.24;99094.83;108971;1277;138057;-60
2022/03/26 11:01:58;;;;;;;33.60;13.50;;;;;;;13.79;43.49;99081.03;109191;1277;23062;-60
2022/03/26 11:04:27;;;;;;;30.00;12.60;;;;;;;13.74;44.01;99069.63;109021;1277;137975;-60
2022/03/26 11:06:56;;;;;;;34.00;12.90;;;;;;;13.73;44.03;99054.14;109144;1277;23010;-60
2022/03/26 11:09:27;;;;;;;32.80;13.20;;;;;;;13.73;43.55;99036.06;109142;1277;22465;-60
2022/03/26 11:11:55;;;;;;;29.10;12.30;;;;;;;13.73;43.32;99029.34;109077;1277;138096;-60
2022/03/26 11:14:29;;;;;;;41.70;13.00;;;;;;;13.74;42.96;99022.42;109154;1277;23093;-60
2022/03/26 11:17:42;;;;;;;33.30;11.60;;;;;;;13.76;42.64;99017.80;108983;1277;139514;-59
2022/03/26 11:20:19;;;;;;;32.00;12.10;;;;;;;13.78;42.06;99016.30;108567;1283;23469;-60
2022/03/26 11:23:20;;;;;;;33.60;12.50;;;;;;;13.82;42.30;99014.36;108455;1282;139450;-59
2022/03/26 11:25:55;;;;;;;42.40;11.20;;;;;;;13.91;42.32;99000.11;108465;1283;22575;-60
2022/03/26 11:28:47;;;;;;;34.80;12.00;;;;;;;14.05;41.96;98998.79;108210;1284;138407;-60
2022/03/26 11:31:29;;;;;;;29.50;9.60;;;;;;;14.17;41.67;98985.24;108545;1283;22437;-59
2022/03/26 11:34:05;;;;;;;46.20;13.50;;;;;;;14.27;40.98;98982.98;108238;1283;137669;-59